Time;durP1;ratioP1;P1;durP2;ratioP2;P2;SDS_P1;SDS_P2;PMS_P1;PMS_P2;Temp;Humidity;BMP_temperature;BMP_pressure;BME280_temperature;BME280_humidity;BME280_pressure;Samples;Min_cycle;Max_cycle;Signal;HPM_P1;HPM_P2
2021/07/07 00:01:03;;;;;;;10.23;3.97;;;16.40;99.90;;;;;;4976537;28;20430;-75
2021/07/07 00:03:31;;;;;;;7.53;3.53;;;16.40;99.90;;;;;;4999096;28;20479;-74
2021/07/07 00:05:57;;;;;;;7.00;3.50;;;16.30;99.90;;;;;;5015066;28;20465;-75
2021/07/07 00:08:24;;;;;;;11.40;4.20;;;16.40;99.90;;;;;;5008629;28;20535;-75
2021/07/07 00:10:51;;;;;;;4.07;2.90;;;16.40;99.90;;;;;;4994170;28;20436;-75
2021/07/07 00:13:18;;;;;;;8.53;2.47;;;16.40;99.90;;;;;;5004560;28;20531;-74
2021/07/07 00:15:45;;;;;;;5.70;2.67;;;16.40;99.90;;;;;;5013797;28;21035;-75
2021/07/07 00:18:13;;;;;;;6.70;2.80;;;16.40;99.90;;;;;;4975202;28;20478;-74
2021/07/07 00:20:45;;;;;;;7.80;4.03;;;16.40;99.90;;;;;;4981451;28;20805;-74
2021/07/07 00:23:13;;;;;;;7.63;2.97;;;16.30;99.90;;;;;;4992013;28;20470;-74
2021/07/07 00:25:39;;;;;;;6.67;3.30;;;16.30;99.90;;;;;;4994982;28;20426;-74
2021/07/07 00:28:06;;;;;;;4.90;2.70;;;16.20;99.90;;;;;;4994012;28;20462;-73
2021/07/07 00:30:33;;;;;;;7.33;2.47;;;16.20;99.90;;;;;;4994346;28;20429;-74
2021/07/07 00:33:00;;;;;;;4.53;2.40;;;16.30;99.90;;;;;;4994535;28;20474;-74
2021/07/07 00:35:27;;;;;;;6.60;2.97;;;16.20;99.90;;;;;;4994876;28;20920;-73
2021/07/07 00:37:54;;;;;;;9.57;3.33;;;16.20;99.90;;;;;;4994229;28;20466;-76
2021/07/07 00:40:21;;;;;;;6.30;3.30;;;16.20;99.90;;;;;;4995135;28;20422;-74
2021/07/07 00:42:49;;;;;;;6.90;3.90;;;16.20;99.90;;;;;;4994390;28;20477;-74
2021/07/07 00:45:16;;;;;;;6.23;3.33;;;16.30;99.90;;;;;;4994781;28;20424;-74
2021/07/07 00:47:45;;;;;;;6.10;4.13;;;16.30;99.90;;;;;;4980517;28;20466;-74
2021/07/07 00:50:13;;;;;;;8.47;3.80;;;16.30;99.90;;;;;;4975311;28;20416;-76
2021/07/07 00:52:41;;;;;;;10.10;3.80;;;16.30;99.90;;;;;;4973197;28;20459;-74
2021/07/07 00:55:11;;;;;;;11.67;3.67;;;16.30;99.90;;;;;;5006934;28;20427;-74
2021/07/07 00:57:41;;;;;;;10.00;3.43;;;16.30;99.90;;;;;;4974609;28;20482;-73
2021/07/07 01:00:13;;;;;;;7.13;3.67;;;16.30;99.90;;;;;;4975209;28;20588;-74
2021/07/07 01:02:42;;;;;;;6.00;3.43;;;16.30;99.90;;;;;;4987825;28;20813;-73
2021/07/07 01:05:12;;;;;;;9.03;4.00;;;16.30;99.90;;;;;;4994318;28;20441;-75
2021/07/07 01:07:39;;;;;;;11.97;3.60;;;16.30;99.90;;;;;;4993507;28;20461;-76
2021/07/07 01:10:08;;;;;;;6.43;3.63;;;16.40;99.90;;;;;;4994317;28;20446;-73
2021/07/07 01:12:35;;;;;;;6.50;3.73;;;16.40;99.90;;;;;;4997682;28;20461;-75
2021/07/07 01:15:05;;;;;;;10.00;3.00;;;16.40;99.90;;;;;;5013935;28;20429;-74
2021/07/07 01:17:32;;;;;;;8.20;3.00;;;16.40;99.90;;;;;;4990555;28;20475;-74
2021/07/07 01:20:05;;;;;;;12.07;3.70;;;16.40;99.90;;;;;;4975086;28;20940;-74
2021/07/07 01:22:32;;;;;;;6.73;3.13;;;16.40;99.90;;;;;;4973935;28;20470;-74
2021/07/07 01:24:59;;;;;;;7.10;3.57;;;16.40;99.90;;;;;;4975213;28;20443;-73
2021/07/07 01:27:26;;;;;;;8.13;3.43;;;16.40;99.90;;;;;;4973681;28;20477;-74
2021/07/07 01:29:53;;;;;;;8.83;3.60;;;16.40;99.90;;;;;;4974571;28;20419;-75
2021/07/07 01:32:20;;;;;;;5.63;3.07;;;16.40;99.90;;;;;;5002066;28;20471;-74
2021/07/07 01:34:47;;;;;;;6.60;3.23;;;16.40;99.90;;;;;;5012360;28;20504;-74
2021/07/07 01:37:14;;;;;;;10.43;3.30;;;16.30;99.90;;;;;;5012827;28;20472;-74
2021/07/07 01:39:41;;;;;;;6.10;3.03;;;16.40;99.90;;;;;;4980643;28;20498;-74
2021/07/07 01:42:09;;;;;;;4.77;2.40;;;16.40;99.90;;;;;;4973543;28;20839;-75
2021/07/07 01:44:35;;;;;;;8.53;2.43;;;16.30;99.90;;;;;;4989265;28;20929;-75
2021/07/07 01:47:05;;;;;;;9.17;3.40;;;16.30;99.90;;;;;;4973458;28;20466;-73
2021/07/07 01:49:32;;;;;;;8.60;3.10;;;16.30;99.90;;;;;;4993692;28;20434;-74
2021/07/07 01:51:59;;;;;;;7.20;2.57;;;16.20;99.90;;;;;;4992909;28;20462;-74
2021/07/07 01:54:26;;;;;;;11.63;2.80;;;16.20;99.90;;;;;;4993292;28;20445;-74
2021/07/07 01:56:52;;;;;;;6.50;2.40;;;16.20;99.90;;;;;;4992864;28;20465;-74
2021/07/07 01:59:19;;;;;;;7.47;2.53;;;16.20;99.90;;;;;;4993293;28;20453;-74
2021/07/07 02:01:46;;;;;;;9.97;3.03;;;16.20;99.90;;;;;;4992879;28;20476;-75
2021/07/07 02:04:13;;;;;;;12.60;3.63;;;16.20;99.90;;;;;;4990092;28;20443;-74
2021/07/07 02:06:40;;;;;;;8.63;3.70;;;16.20;99.90;;;;;;4973509;28;20505;-73
2021/07/07 02:09:07;;;;;;;5.90;3.40;;;16.10;99.90;;;;;;4974118;28;20446;-73
2021/07/07 02:11:35;;;;;;;7.60;2.77;;;16.10;99.90;;;;;;4973981;28;20789;-74
2021/07/07 02:14:03;;;;;;;8.33;3.10;;;16.10;99.90;;;;;;5020263;28;20483;-74
2021/07/07 02:16:30;;;;;;;5.67;2.90;;;16.20;99.90;;;;;;5006262;28;20432;-74
2021/07/07 02:18:57;;;;;;;8.00;2.70;;;16.10;99.90;;;;;;4974278;28;20561;-74
2021/07/07 02:21:25;;;;;;;7.40;2.97;;;16.10;99.90;;;;;;4973579;28;20812;-75
2021/07/07 02:23:55;;;;;;;6.40;3.10;;;16.10;99.90;;;;;;4982737;28;20461;-74
2021/07/07 02:26:22;;;;;;;4.40;2.80;;;16.10;99.90;;;;;;5007454;28;20426;-74
2021/07/07 02:28:49;;;;;;;7.23;3.73;;;16.10;99.90;;;;;;4992654;28;20422;-74
2021/07/07 02:31:16;;;;;;;6.20;3.10;;;16.10;99.90;;;;;;4991718;28;20427;-74
2021/07/07 02:33:43;;;;;;;6.97;2.93;;;16.00;99.90;;;;;;4992330;28;20446;-74
2021/07/07 02:36:10;;;;;;;7.03;2.13;;;15.90;99.90;;;;;;5007950;28;20433;-76
2021/07/07 02:38:37;;;;;;;6.20;2.97;;;15.80;99.90;;;;;;4985239;28;20524;-74
2021/07/07 02:41:05;;;;;;;7.00;2.57;;;15.70;99.90;;;;;;4973409;28;20415;-75
2021/07/07 02:43:32;;;;;;;10.87;3.23;;;15.70;99.90;;;;;;4972820;28;20480;-75
2021/07/07 02:45:59;;;;;;;6.53;2.70;;;15.60;99.90;;;;;;4972040;28;20779;-74
2021/07/07 02:48:26;;;;;;;5.40;2.03;;;15.50;99.90;;;;;;4972886;28;20466;-74
2021/07/07 02:50:53;;;;;;;8.00;2.50;;;15.50;99.90;;;;;;4973010;28;20437;-73
2021/07/07 02:53:20;;;;;;;5.40;2.70;;;15.40;99.90;;;;;;4977109;28;21005;-74
2021/07/07 02:55:47;;;;;;;10.43;3.40;;;15.30;99.90;;;;;;4991295;28;20428;-74
2021/07/07 02:58:14;;;;;;;6.33;2.80;;;15.20;99.90;;;;;;4991801;28;20469;-75
2021/07/07 03:00:46;;;;;;;4.97;2.10;;;15.20;99.90;;;;;;4992350;28;20466;-75
2021/07/07 03:03:21;;;;;;;5.97;3.70;;;15.10;99.90;;;;;;4991190;28;20479;-75
2021/07/07 03:05:54;;;;;;;12.20;2.67;;;15.10;99.90;;;;;;4992226;28;20434;-73
2021/07/07 03:08:26;;;;;;;6.33;2.77;;;15.00;99.90;;;;;;5003076;28;20572;-75
2021/07/07 03:10:54;;;;;;;5.93;2.40;;;15.00;99.90;;;;;;4972843;28;20432;-74
2021/07/07 03:13:22;;;;;;;5.33;2.87;;;15.00;99.90;;;;;;4998740;28;20517;-74
2021/07/07 03:15:50;;;;;;;10.57;3.13;;;15.00;99.90;;;;;;4991311;28;20929;-74
2021/07/07 03:18:18;;;;;;;10.77;3.03;;;15.10;99.90;;;;;;4990877;28;20834;-73
2021/07/07 03:20:46;;;;;;;5.93;2.60;;;15.20;99.90;;;;;;4992193;28;20465;-73
2021/07/07 03:23:16;;;;;;;7.43;2.80;;;15.30;99.90;;;;;;5002873;28;20568;-74
2021/07/07 03:25:44;;;;;;;8.17;3.07;;;15.40;99.90;;;;;;4972863;28;20692;-74
2021/07/07 03:28:11;;;;;;;6.00;3.00;;;15.50;99.90;;;;;;4971077;28;20478;-74
2021/07/07 03:30:38;;;;;;;4.90;3.00;;;15.50;99.90;;;;;;4972858;28;20429;-74
2021/07/07 03:33:05;;;;;;;6.10;2.80;;;15.60;99.90;;;;;;4981456;28;20481;-75
2021/07/07 03:35:32;;;;;;;7.70;2.93;;;15.60;99.90;;;;;;4992337;28;20428;-74
2021/07/07 03:37:59;;;;;;;4.50;2.67;;;15.70;99.90;;;;;;4989577;28;20977;-75
2021/07/07 03:40:28;;;;;;;5.20;2.97;;;15.70;99.90;;;;;;4972766;28;20477;-74
2021/07/07 03:42:55;;;;;;;8.13;3.57;;;15.70;99.90;;;;;;4971983;28;21000;-74
2021/07/07 03:45:22;;;;;;;7.17;2.60;;;15.80;99.90;;;;;;4972875;28;20427;-74
2021/07/07 03:47:49;;;;;;;4.27;2.23;;;15.80;99.90;;;;;;4987238;28;20460;-74
2021/07/07 03:50:17;;;;;;;8.37;3.43;;;15.80;99.90;;;;;;4992159;28;20464;-73
2021/07/07 03:52:45;;;;;;;6.37;2.80;;;15.90;99.90;;;;;;4990968;28;20466;-73
2021/07/07 03:55:16;;;;;;;8.23;2.73;;;15.90;99.90;;;;;;4972858;28;20431;-74
2021/07/07 03:57:44;;;;;;;6.17;2.43;;;15.90;99.90;;;;;;4972038;28;20473;-76
2021/07/07 04:00:18;;;;;;;8.50;2.80;;;15.90;99.90;;;;;;4972432;28;20500;-75
2021/07/07 04:02:45;;;;;;;5.20;3.00;;;15.90;99.90;;;;;;4972819;28;20492;-74
2021/07/07 04:05:12;;;;;;;6.03;3.13;;;15.90;99.90;;;;;;4990971;28;21008;-74
2021/07/07 04:07:39;;;;;;;6.07;2.50;;;15.90;99.90;;;;;;4975437;28;20449;-73
2021/07/07 04:10:08;;;;;;;6.90;3.00;;;16.00;99.90;;;;;;4995789;28;20949;-74
2021/07/07 04:12:36;;;;;;;5.87;2.20;;;15.90;99.90;;;;;;4998951;28;20467;-74
2021/07/07 04:15:05;;;;;;;7.00;2.57;;;16.00;99.90;;;;;;5030085;28;20829;-74
2021/07/07 04:17:33;;;;;;;4.20;2.60;;;16.00;99.90;;;;;;4985794;28;20482;-74
2021/07/07 04:20:01;;;;;;;8.90;2.97;;;16.00;99.90;;;;;;4990643;28;20466;-73
2021/07/07 04:22:28;;;;;;;6.70;3.00;;;16.00;99.90;;;;;;4975155;28;20561;-74
2021/07/07 04:24:54;;;;;;;5.90;2.53;;;16.10;99.90;;;;;;4993440;28;20528;-74
2021/07/07 04:27:21;;;;;;;5.53;2.60;;;16.20;99.90;;;;;;4994299;28;20484;-73
2021/07/07 04:29:48;;;;;;;7.60;2.37;;;16.20;99.90;;;;;;5009986;28;20497;-74
2021/07/07 04:32:18;;;;;;;8.10;3.53;;;16.30;99.90;;;;;;4994409;28;20823;-74
2021/07/07 04:34:46;;;;;;;10.40;3.30;;;16.20;99.90;;;;;;4990943;28;20756;-74
2021/07/07 04:37:13;;;;;;;10.43;3.10;;;16.30;99.90;;;;;;4974933;28;20932;-73
2021/07/07 04:39:40;;;;;;;4.60;2.30;;;16.40;99.90;;;;;;4994529;28;20477;-74
2021/07/07 04:42:07;;;;;;;9.80;2.70;;;16.40;99.90;;;;;;5008957;28;20853;-74
2021/07/07 04:44:34;;;;;;;5.63;2.13;;;16.30;99.90;;;;;;4994802;28;20414;-74
2021/07/07 04:47:01;;;;;;;5.97;2.20;;;16.40;99.90;;;;;;4994110;28;20479;-74
2021/07/07 04:49:28;;;;;;;8.83;2.70;;;16.40;99.90;;;;;;4993601;28;20427;-74
2021/07/07 04:51:55;;;;;;;7.80;3.10;;;16.40;99.90;;;;;;4994115;28;20828;-76
2021/07/07 04:54:22;;;;;;;7.23;2.50;;;16.40;99.90;;;;;;4994589;28;20808;-73
2021/07/07 04:56:49;;;;;;;3.37;2.13;;;16.30;99.90;;;;;;4994460;28;20964;-74
2021/07/07 04:59:16;;;;;;;4.07;1.70;;;16.40;99.90;;;;;;5009296;28;20565;-74
2021/07/07 05:01:42;;;;;;;9.00;2.80;;;16.40;99.90;;;;;;4976216;28;20451;-74
2021/07/07 05:04:09;;;;;;;4.90;2.40;;;16.40;99.90;;;;;;4975112;28;20433;-74
2021/07/07 05:06:36;;;;;;;8.60;2.90;;;16.40;99.90;;;;;;4989324;28;20498;-73
2021/07/07 05:09:03;;;;;;;6.00;2.50;;;16.40;99.90;;;;;;4995713;28;20436;-74
2021/07/07 05:11:37;;;;;;;9.00;4.50;;;16.50;99.90;;;;;;5012330;28;20733;-73
2021/07/07 05:14:04;;;;;;;7.40;3.10;;;16.50;99.90;;;;;;5012653;28;20587;-74
2021/07/07 05:16:32;;;;;;;11.23;3.20;;;16.60;99.90;;;;;;5005800;28;20921;-74
2021/07/07 05:19:02;;;;;;;8.50;2.87;;;16.50;99.90;;;;;;5005735;28;20458;-74
2021/07/07 05:21:29;;;;;;;6.00;2.40;;;16.60;99.90;;;;;;4989580;28;20438;-74
2021/07/07 05:23:55;;;;;;;7.50;2.73;;;16.60;99.90;;;;;;4984520;28;20472;-74
2021/07/07 05:26:22;;;;;;;8.27;3.10;;;16.60;99.90;;;;;;4993354;28;20426;-74
2021/07/07 05:28:49;;;;;;;4.00;2.57;;;16.50;99.90;;;;;;4994020;28;20425;-75
2021/07/07 05:31:16;;;;;;;12.20;3.63;;;16.50;99.90;;;;;;5007529;28;20884;-74
2021/07/07 05:33:44;;;;;;;5.37;2.90;;;16.60;99.90;;;;;;5008369;28;20458;-75
2021/07/07 05:36:11;;;;;;;7.63;3.43;;;16.60;99.90;;;;;;4992634;28;20473;-74
2021/07/07 05:38:38;;;;;;;7.80;3.37;;;16.60;99.90;;;;;;4993180;28;20474;-74
2021/07/07 05:41:05;;;;;;;9.83;3.20;;;16.50;99.90;;;;;;4994122;28;20469;-73
2021/07/07 05:43:34;;;;;;;5.30;2.77;;;16.60;99.90;;;;;;4992065;28;20844;-74
2021/07/07 05:46:01;;;;;;;4.30;2.53;;;16.60;99.90;;;;;;4993842;28;20491;-74
2021/07/07 05:48:29;;;;;;;6.30;2.20;;;16.70;99.90;;;;;;5007102;28;20474;-74
2021/07/07 05:50:56;;;;;;;10.23;3.30;;;16.70;99.90;;;;;;5008818;28;20426;-74
2021/07/07 05:53:23;;;;;;;5.23;3.30;;;16.70;99.90;;;;;;4986752;28;20483;-76
2021/07/07 05:55:51;;;;;;;4.53;2.90;;;16.80;99.90;;;;;;4974125;28;20434;-75
2021/07/07 05:58:18;;;;;;;8.40;2.70;;;16.80;99.90;;;;;;4973477;28;20470;-77
2021/07/07 06:00:45;;;;;;;7.03;3.03;;;16.90;99.90;;;;;;4979789;28;20457;-75
2021/07/07 06:03:12;;;;;;;5.80;3.17;;;17.00;99.90;;;;;;4971901;28;20467;-73
2021/07/07 06:05:39;;;;;;;6.33;2.70;;;17.10;99.90;;;;;;4974079;28;20838;-74
2021/07/07 06:08:06;;;;;;;8.70;3.37;;;17.20;99.90;;;;;;4962130;28;20477;-76
2021/07/07 06:10:33;;;;;;;5.93;3.20;;;17.30;99.90;;;;;;4983821;28;20431;-74
2021/07/07 06:13:01;;;;;;;8.93;3.00;;;17.30;99.90;;;;;;4973337;28;20469;-75
2021/07/07 06:15:28;;;;;;;4.33;2.70;;;17.40;99.90;;;;;;4989528;28;20430;-76
2021/07/07 06:17:55;;;;;;;6.73;2.80;;;17.40;99.90;;;;;;4973526;28;20466;-75
2021/07/07 06:20:23;;;;;;;4.47;2.70;;;17.40;99.90;;;;;;4980281;28;20888;-75
2021/07/07 06:22:50;;;;;;;5.03;2.70;;;17.50;99.90;;;;;;4990744;28;20466;-73
2021/07/07 06:25:18;;;;;;;9.93;2.93;;;17.60;99.90;;;;;;4973827;28;20791;-74
2021/07/07 06:27:45;;;;;;;8.27;2.97;;;17.80;99.90;;;;;;4977476;28;20469;-72
2021/07/07 06:30:15;;;;;;;6.17;2.87;;;18.10;99.90;;;;;;4973364;28;20523;-74
2021/07/07 06:32:48;;;;;;;5.30;3.13;;;18.30;99.90;;;;;;4976436;28;20559;-73
2021/07/07 06:35:16;;;;;;;6.07;2.83;;;18.30;99.90;;;;;;4972199;28;20486;-73
2021/07/07 06:37:43;;;;;;;9.30;3.73;;;18.40;99.90;;;;;;4971391;28;20518;-73
2021/07/07 06:40:11;;;;;;;6.87;3.07;;;18.50;99.90;;;;;;4973951;28;20982;-73
2021/07/07 06:42:38;;;;;;;5.23;3.03;;;18.80;99.90;;;;;;4987724;28;20482;-73
2021/07/07 06:45:07;;;;;;;10.47;3.37;;;18.80;99.90;;;;;;4973245;28;20794;-73
2021/07/07 06:47:35;;;;;;;5.87;3.37;;;18.90;99.90;;;;;;4987400;28;20886;-74
2021/07/07 06:50:04;;;;;;;5.97;2.53;;;19.20;99.90;;;;;;4973281;28;20434;-73
2021/07/07 06:52:31;;;;;;;10.80;2.50;;;19.40;99.90;;;;;;4987415;28;20539;-73
2021/07/07 06:54:59;;;;;;;4.77;2.70;;;19.50;99.90;;;;;;4991491;28;20448;-73
2021/07/07 06:57:26;;;;;;;3.97;2.23;;;19.70;99.90;;;;;;4991923;28;20461;-73
2021/07/07 06:59:52;;;;;;;6.43;2.20;;;19.90;99.90;;;;;;4992132;28;20508;-73
2021/07/07 07:02:22;;;;;;;4.17;2.43;;;20.00;99.90;;;;;;4987751;28;20813;-73
2021/07/07 07:04:49;;;;;;;4.30;2.17;;;20.10;99.90;;;;;;4976129;28;20429;-75
2021/07/07 07:07:16;;;;;;;10.13;2.73;;;20.30;99.90;;;;;;4991714;28;20470;-73
2021/07/07 07:09:45;;;;;;;5.80;2.00;;;20.30;98.50;;;;;;4978354;28;20450;-74
2021/07/07 07:12:12;;;;;;;3.43;2.10;;;20.40;96.60;;;;;;4972565;28;20494;-75
2021/07/07 07:14:42;;;;;;;7.83;2.97;;;20.50;94.00;;;;;;4981688;28;20429;-75
2021/07/07 07:17:11;;;;;;;6.00;2.53;;;20.60;92.30;;;;;;4994707;28;20478;-74
2021/07/07 07:19:38;;;;;;;4.93;2.30;;;20.70;92.00;;;;;;4986800;28;20429;-73
2021/07/07 07:22:05;;;;;;;7.10;2.37;;;20.70;92.40;;;;;;4971034;28;20466;-73
2021/07/07 07:24:32;;;;;;;5.30;2.30;;;20.80;91.40;;;;;;4983214;28;20455;-74
2021/07/07 07:27:04;;;;;;;4.40;2.40;;;20.90;91.40;;;;;;4972206;28;20462;-73
2021/07/07 07:29:35;;;;;;;9.93;2.70;;;20.90;89.90;;;;;;4973115;28;20429;-74
2021/07/07 07:32:03;;;;;;;5.50;2.57;;;21.10;87.90;;;;;;4980708;28;20479;-75
2021/07/07 07:34:30;;;;;;;3.90;2.17;;;21.20;85.60;;;;;;4987891;28;20424;-73
2021/07/07 07:37:02;;;;;;;9.60;3.80;;;21.40;85.70;;;;;;4987214;28;21071;-74
2021/07/07 07:39:40;;;;;;;5.47;3.00;;;21.40;80.40;;;;;;4990124;28;20955;-74
2021/07/07 07:42:10;;;;;;;4.50;2.10;;;21.50;83.70;;;;;;5011825;28;20585;-74
2021/07/07 07:44:38;;;;;;;7.43;3.30;;;21.60;78.40;;;;;;5013380;28;20426;-74
2021/07/07 07:47:05;;;;;;;4.23;2.00;;;21.60;82.00;;;;;;4996782;28;20457;-73
2021/07/07 07:49:33;;;;;;;9.53;2.30;;;21.60;82.60;;;;;;4997369;28;20449;-73
2021/07/07 07:52:00;;;;;;;3.63;2.00;;;21.60;78.70;;;;;;5010875;28;20492;-73
2021/07/07 07:54:28;;;;;;;6.87;2.10;;;21.60;81.00;;;;;;5008492;28;20464;-73
2021/07/07 07:56:55;;;;;;;5.03;2.13;;;21.70;78.40;;;;;;4995688;28;20468;-74
2021/07/07 07:59:22;;;;;;;5.60;2.30;;;21.80;75.90;;;;;;4996189;28;20418;-73
2021/07/07 08:01:49;;;;;;;4.33;2.00;;;21.80;75.80;;;;;;4995339;28;20469;-74
2021/07/07 08:04:18;;;;;;;6.40;2.70;;;21.80;74.00;;;;;;4994992;28;20430;-74
2021/07/07 08:06:46;;;;;;;3.90;1.80;;;21.90;72.10;;;;;;5010335;28;20450;-74
2021/07/07 08:09:13;;;;;;;6.80;2.60;;;22.00;72.20;;;;;;4984326;28;20454;-73
2021/07/07 08:11:42;;;;;;;6.17;2.83;;;22.10;71.40;;;;;;4990776;28;20458;-74
2021/07/07 08:14:11;;;;;;;4.10;2.50;;;22.20;69.00;;;;;;4976207;28;20479;-73
2021/07/07 08:16:38;;;;;;;10.80;2.33;;;22.20;70.10;;;;;;4975919;28;20486;-74
2021/07/07 08:19:10;;;;;;;5.37;2.30;;;22.10;69.80;;;;;;4976775;28;20466;-73
2021/07/07 08:21:37;;;;;;;5.33;2.10;;;22.10;67.50;;;;;;4990523;28;20561;-73
2021/07/07 08:24:04;;;;;;;1.70;1.40;;;22.10;67.60;;;;;;4991590;28;20509;-73
2021/07/07 08:26:31;;;;;;;9.93;2.33;;;22.00;69.30;;;;;;4974530;28;20917;-72
2021/07/07 08:28:58;;;;;;;4.90;2.03;;;21.90;69.40;;;;;;4976199;28;20425;-74
2021/07/07 08:31:25;;;;;;;6.23;1.90;;;22.10;73.90;;;;;;4994714;28;20431;-74
2021/07/07 08:33:55;;;;;;;7.97;2.20;;;22.30;72.40;;;;;;5023580;28;20459;-75
2021/07/07 08:36:25;;;;;;;4.70;1.97;;;22.50;68.90;;;;;;5014677;28;20445;-75
2021/07/07 08:38:53;;;;;;;4.70;2.00;;;22.60;65.20;;;;;;5000534;28;20501;-74
2021/07/07 08:41:23;;;;;;;3.53;1.97;;;22.80;65.90;;;;;;4974158;28;20992;-76
2021/07/07 08:43:52;;;;;;;5.20;1.80;;;22.90;67.30;;;;;;4975454;28;20445;-74
2021/07/07 08:46:19;;;;;;;5.83;2.10;;;23.10;66.80;;;;;;4990374;28;20444;-75
2021/07/07 08:48:46;;;;;;;5.13;2.23;;;23.00;64.30;;;;;;5002306;28;20866;-74
2021/07/07 08:51:16;;;;;;;5.30;1.80;;;23.00;63.30;;;;;;4974144;28;20993;-75
2021/07/07 08:53:45;;;;;;;2.53;2.07;;;23.00;64.30;;;;;;4981786;28;21014;-75
2021/07/07 08:56:13;;;;;;;4.30;2.23;;;23.00;64.20;;;;;;4993386;28;20811;-76
2021/07/07 08:58:42;;;;;;;4.17;1.97;;;23.00;63.50;;;;;;5009028;28;20530;-74
2021/07/07 09:01:09;;;;;;;4.73;1.70;;;23.00;59.80;;;;;;4995721;28;20485;-74
2021/07/07 09:03:44;;;;;;;4.47;2.73;;;23.10;60.00;;;;;;5013349;28;20475;-75
2021/07/07 09:06:12;;;;;;;7.13;3.00;;;23.00;60.70;;;;;;5012914;28;20429;-74
2021/07/07 09:08:47;;;;;;;7.53;2.80;;;23.10;60.80;;;;;;5004642;28;20475;-74
2021/07/07 09:11:29;;;;;;;4.60;2.43;;;23.00;62.50;;;;;;4991369;28;20436;-74
2021/07/07 09:14:14;;;;;;;5.00;2.07;;;23.00;63.30;;;;;;4994251;28;20869;-73
2021/07/07 09:17:00;;;;;;;6.03;2.67;;;22.80;60.10;;;;;;4993200;28;20481;-75
2021/07/07 09:19:30;;;;;;;5.20;3.57;;;22.60;61.70;;;;;;4988706;28;20443;-73
2021/07/07 09:22:16;;;;;;;4.10;2.43;;;22.50;61.70;;;;;;4974045;28;20462;-78
2021/07/07 09:24:45;;;;;;;3.70;2.90;;;22.30;63.20;;;;;;4975306;28;20949;-74
2021/07/07 09:27:15;;;;;;;5.17;2.63;;;22.30;63.90;;;;;;4973887;28;20467;-74
2021/07/07 09:29:46;;;;;;;4.20;2.53;;;22.30;64.40;;;;;;4973624;28;20525;-74
2021/07/07 09:32:20;;;;;;;5.23;2.20;;;22.40;63.30;;;;;;5001237;28;20476;-74
2021/07/07 09:34:51;;;;;;;5.67;2.40;;;22.60;64.10;;;;;;4986450;28;20439;-73
2021/07/07 09:37:22;;;;;;;6.67;2.23;;;23.00;59.70;;;;;;4988826;28;20555;-74
2021/07/07 09:39:50;;;;;;;3.57;1.80;;;23.40;62.80;;;;;;5003175;28;20839;-73
2021/07/07 09:42:29;;;;;;;2.40;1.60;;;23.60;56.20;;;;;;4988564;28;20511;-75
2021/07/07 09:44:58;;;;;;;6.10;2.10;;;23.70;58.60;;;;;;4989220;28;20452;-75
2021/07/07 09:47:27;;;;;;;5.10;1.70;;;23.70;54.80;;;;;;4999081;28;20484;-74
2021/07/07 09:49:55;;;;;;;3.53;1.90;;;23.50;55.50;;;;;;4993684;28;20422;-73
2021/07/07 09:52:25;;;;;;;2.30;1.73;;;23.40;56.20;;;;;;4992967;28;20470;-74
2021/07/07 09:54:58;;;;;;;6.40;1.87;;;23.30;56.00;;;;;;4976164;28;20544;-74
2021/07/07 09:57:25;;;;;;;5.53;2.40;;;23.10;56.70;;;;;;5007854;28;20495;-76
2021/07/07 09:59:52;;;;;;;2.73;1.70;;;23.10;57.00;;;;;;4993551;28;20421;-75
2021/07/07 10:02:19;;;;;;;2.50;1.80;;;23.00;58.70;;;;;;4991394;28;21012;-74
2021/07/07 10:04:45;;;;;;;3.33;2.07;;;23.20;59.60;;;;;;4993452;28;20548;-74
2021/07/07 10:07:14;;;;;;;6.50;2.53;;;23.30;59.40;;;;;;5007766;28;20459;-78
2021/07/07 10:09:45;;;;;;;3.77;1.83;;;23.30;57.00;;;;;;4978296;28;20952;-74
2021/07/07 10:12:12;;;;;;;4.17;1.80;;;23.40;58.60;;;;;;4973297;28;20469;-73
2021/07/07 10:14:39;;;;;;;3.10;1.67;;;23.30;57.80;;;;;;4979847;28;20443;-73
2021/07/07 10:17:06;;;;;;;3.50;2.10;;;23.10;57.40;;;;;;4992557;28;20494;-74
2021/07/07 10:19:34;;;;;;;9.63;2.47;;;22.90;59.40;;;;;;4988643;28;20523;-74
2021/07/07 10:22:01;;;;;;;6.63;3.30;;;22.70;60.60;;;;;;4971662;28;20551;-74
2021/07/07 10:24:31;;;;;;;4.73;3.03;;;22.60;60.10;;;;;;4973042;28;20809;-74
2021/07/07 10:27:02;;;;;;;5.93;2.67;;;22.60;60.50;;;;;;4989655;28;20960;-72
2021/07/07 10:29:29;;;;;;;6.80;2.63;;;22.70;62.50;;;;;;4992843;28;20422;-72
2021/07/07 10:31:58;;;;;;;3.57;2.10;;;22.80;63.00;;;;;;5007576;28;20462;-73
2021/07/07 10:34:27;;;;;;;4.80;2.50;;;22.80;62.30;;;;;;4988550;28;20445;-72
2021/07/07 10:36:56;;;;;;;3.30;2.50;;;22.90;63.90;;;;;;4987935;28;21045;-75
2021/07/07 10:39:24;;;;;;;2.13;1.70;;;23.20;64.10;;;;;;4982232;28;20484;-73
2021/07/07 10:41:54;;;;;;;4.00;2.10;;;23.30;62.90;;;;;;4987670;28;20487;-72
2021/07/07 10:44:23;;;;;;;4.23;1.90;;;23.20;59.80;;;;;;4972235;28;20431;-72
2021/07/07 10:46:57;;;;;;;4.97;2.60;;;23.20;59.40;;;;;;4990431;28;20461;-73
2021/07/07 10:49:37;;;;;;;3.30;2.83;;;23.10;57.70;;;;;;4994212;28;20487;-73
2021/07/07 10:52:06;;;;;;;3.03;2.47;;;23.00;59.40;;;;;;5010783;28;20482;-73
2021/07/07 10:54:36;;;;;;;4.07;2.33;;;22.90;59.50;;;;;;4995580;28;20446;-72
2021/07/07 10:57:07;;;;;;;4.83;2.70;;;22.80;61.60;;;;;;4992316;28;20550;-72
2021/07/07 10:59:39;;;;;;;7.47;2.57;;;22.80;61.90;;;;;;4982735;28;20426;-74
2021/07/07 11:02:15;;;;;;;2.40;1.90;;;22.70;62.60;;;;;;4992194;28;20496;-73
2021/07/07 11:04:44;;;;;;;3.60;1.77;;;22.70;65.60;;;;;;4993022;28;20439;-75
2021/07/07 11:07:32;;;;;;;2.50;1.87;;;22.80;62.60;;;;;;4992286;28;20496;-73
2021/07/07 11:10:04;;;;;;;4.00;2.13;;;22.90;63.20;;;;;;4975199;28;20964;-73
2021/07/07 11:12:40;;;;;;;4.60;2.30;;;23.00;62.00;;;;;;4987743;28;20469;-75
2021/07/07 11:15:07;;;;;;;4.27;1.93;;;22.90;62.70;;;;;;4995068;28;20950;-73
2021/07/07 11:17:43;;;;;;;2.53;2.33;;;22.80;62.90;;;;;;4993423;28;20482;-73
2021/07/07 11:20:14;;;;;;;6.50;4.50;;;22.90;62.50;;;;;;4994794;28;20909;-73
2021/07/07 11:22:43;;;;;;;6.27;3.30;;;23.00;61.20;;;;;;4976419;28;20473;-73
2021/07/07 11:25:15;;;;;;;5.33;2.77;;;23.00;60.40;;;;;;4996070;28;20473;-74
2021/07/07 11:27:44;;;;;;;4.17;2.13;;;23.00;61.50;;;;;;4977803;28;20475;-73
2021/07/07 11:30:13;;;;;;;5.50;2.73;;;22.90;62.20;;;;;;4986598;28;20490;-72
2021/07/07 11:32:44;;;;;;;3.90;2.33;;;22.90;61.30;;;;;;4995747;28;20471;-73
2021/07/07 11:35:28;;;;;;;5.37;2.23;;;22.80;62.70;;;;;;4996432;28;20459;-73
2021/07/07 11:37:59;;;;;;;4.73;1.90;;;22.70;63.80;;;;;;4994707;28;20487;-72
2021/07/07 11:40:30;;;;;;;3.07;1.47;;;22.70;61.30;;;;;;4977177;28;20516;-74
2021/07/07 11:43:01;;;;;;;3.20;2.00;;;22.80;58.70;;;;;;4991547;28;20479;-73
2021/07/07 11:45:49;;;;;;;2.90;1.90;;;22.90;60.80;;;;;;4996100;28;20428;-73
2021/07/07 11:51:16;;;;;;;2.67;1.90;;;23.30;60.70;;;;;;4976696;28;20442;-73
2021/07/07 11:53:53;;;;;;;3.27;1.53;;;23.40;58.80;;;;;;4984378;28;20458;-76
2021/07/07 11:56:24;;;;;;;4.53;1.60;;;23.30;58.90;;;;;;4993629;28;20470;-74
2021/07/07 11:58:58;;;;;;;4.70;2.10;;;23.30;59.80;;;;;;4995710;28;20453;-72
2021/07/07 12:01:33;;;;;;;2.80;1.80;;;23.20;60.50;;;;;;4994862;28;20997;-73
2021/07/07 12:04:08;;;;;;;3.70;1.93;;;23.10;59.10;;;;;;4976202;28;20439;-72
2021/07/07 12:06:41;;;;;;;1.93;1.33;;;23.10;60.30;;;;;;4968331;28;20995;-72
2021/07/07 12:09:16;;;;;;;5.73;2.57;;;23.10;61.30;;;;;;5007017;28;20446;-73
2021/07/07 12:12:00;;;;;;;4.07;2.70;;;23.30;62.10;;;;;;4994827;28;21057;-73
2021/07/07 12:14:32;;;;;;;7.00;3.30;;;23.40;60.90;;;;;;4980580;28;20436;-74
2021/07/07 12:17:00;;;;;;;3.90;2.50;;;23.50;60.30;;;;;;4977966;28;20559;-73
2021/07/07 12:19:28;;;;;;;3.33;2.10;;;23.60;58.50;;;;;;4995749;28;20939;-71
2021/07/07 12:21:57;;;;;;;3.77;1.60;;;23.60;58.30;;;;;;4981316;28;20463;-72
2021/07/07 12:24:26;;;;;;;2.13;1.80;;;23.60;58.40;;;;;;4976330;28;20457;-74
2021/07/07 12:27:00;;;;;;;3.23;1.90;;;23.60;58.90;;;;;;4989537;28;20463;-72
2021/07/07 12:29:31;;;;;;;1.87;1.63;;;23.80;58.60;;;;;;4994417;28;20809;-73
2021/07/07 12:32:13;;;;;;;3.40;1.83;;;23.90;58.70;;;;;;5004994;28;20494;-73
2021/07/07 12:34:49;;;;;;;6.50;2.17;;;24.00;57.50;;;;;;4975682;28;20920;-73
2021/07/07 12:37:17;;;;;;;2.73;2.13;;;24.00;59.60;;;;;;4975019;28;20471;-72
2021/07/07 12:39:50;;;;;;;2.63;2.03;;;23.90;56.20;;;;;;4991595;28;20443;-72
2021/07/07 12:42:37;;;;;;;4.63;1.90;;;23.70;54.80;;;;;;4994361;28;20478;-73
2021/07/07 12:45:07;;;;;;;2.20;2.00;;;23.70;57.50;;;;;;4993882;28;20427;-75
2021/07/07 12:47:34;;;;;;;2.53;1.60;;;23.80;56.40;;;;;;4991674;28;20459;-73
2021/07/07 12:50:20;;;;;;;2.63;2.00;;;23.90;57.30;;;;;;4975380;28;20526;-73
2021/07/07 12:52:48;;;;;;;1.93;1.60;;;24.10;54.60;;;;;;4973860;28;20493;-73
2021/07/07 12:55:26;;;;;;;3.47;2.13;;;24.30;56.00;;;;;;4975312;28;20434;-73
2021/07/07 12:57:55;;;;;;;1.83;1.63;;;24.20;54.70;;;;;;4974570;28;20472;-73